»·PEaware :: N608PR KSNA-KRNM

N608PR :: KSNA-KRNM

FLIGHT INFORMATION

Flight Status: Arrived
Operator: Privately registered:
United States
More flights under this callsign
Pilot: Fernando A. (32251)
Aircraft: BEECH AIRCRAFT BONANZA
(BE36)
More flights by this aircraft type
Origin: KSNA John Wayne-Orange Co
United States
Destination: KRNM Ramona
United States
More flights between these airports :: More routes between these airports
Route:
File this flight plan on PilotEdge
Remarks:
Altitude:
(Current/Filed)
3,500ft
Speed:
(Current/Filed)
150kts
Departed: 05-Nov-20 01:21 PM
Arrived: 05-Nov-20 01:57 PM
Distance/Time
Traveled:
61nm/0:36
Distance/Time
To Go:
Arrived

Flight Plot

Page will automatically refresh every two minutes.


Map Options




Map Legend


Flown Route
Filed Route
Departure Airport
Arrival Airport
Navaid (VOR, NDB)
Fix

Horizontal Profiles

Position Reports

Time Latitude Longitude Heading Altitude Ground
Speed
05-Nov-20 12:59 33.672671 -117.865901 0 53ft 0kts
05-Nov-20 13:00 33.672671 -117.865901 205 53ft 0kts
05-Nov-20 13:01 33.672671 -117.865901 205 53ft 0kts
05-Nov-20 13:02 33.672671 -117.865901 205 53ft 0kts
05-Nov-20 13:03 33.672671 -117.865901 205 53ft 0kts
05-Nov-20 13:04 33.672671 -117.865901 205 53ft 0kts
05-Nov-20 13:05 33.672671 -117.865901 205 53ft 0kts
05-Nov-20 13:06 33.672671 -117.865901 205 53ft 0kts
05-Nov-20 13:07 33.672671 -117.865901 205 53ft 0kts
05-Nov-20 13:08 33.672671 -117.865901 205 53ft 0kts
05-Nov-20 13:09 33.672671 -117.865901 205 53ft 0kts
05-Nov-20 13:10 33.672671 -117.865901 205 53ft 0kts
05-Nov-20 13:11 33.672671 -117.865901 205 53ft 0kts
05-Nov-20 13:12 33.673811 -117.867174 323 58ft 6kts
05-Nov-20 13:13 33.677156 -117.865172 27 50ft 16kts
05-Nov-20 13:14 33.679975 -117.863649 296 44ft 0kts
05-Nov-20 13:15 33.679975 -117.863649 296 44ft 0kts
05-Nov-20 13:16 33.679975 -117.863649 296 44ft 0kts
05-Nov-20 13:17 33.679975 -117.863649 296 44ft 0kts
05-Nov-20 13:18 33.679975 -117.863649 296 44ft 0kts
05-Nov-20 13:19 33.679757 -117.864412 207 46ft 3kts
05-Nov-20 13:20 33.663217 -117.873703 176 575ft 91kts
05-Nov-20 13:21 33.636612 -117.864881 162 1473ft 101kts
05-Nov-20 13:22 33.607334 -117.853696 160 1842ft 116kts
05-Nov-20 13:23 33.576497 -117.839915 154 1987ft 122kts
05-Nov-20 13:24 33.548584 -117.815597 136 2575ft 125kts
05-Nov-20 13:25 33.523534 -117.784421 134 3356ft 143kts
05-Nov-20 13:26 33.497451 -117.748618 131 3339ft 136kts
05-Nov-20 13:27 33.473328 -117.713814 129 3335ft 135kts
05-Nov-20 13:28 33.446913 -117.674231 129 3347ft 161kts
05-Nov-20 13:29 33.415052 -117.636311 165 3335ft 163kts
05-Nov-20 13:30 33.370235 -117.628137 173 3335ft 163kts
05-Nov-20 13:31 33.329141 -117.607294 143 3336ft 165kts
05-Nov-20 13:32 33.292339 -117.573122 143 3338ft 169kts
05-Nov-20 13:34 33.255082 -117.538647 143 3339ft 169kts
05-Nov-20 13:35 33.221817 -117.499599 109 2635ft 169kts
05-Nov-20 13:36 33.216450 -117.444178 92 1734ft 167kts
05-Nov-20 13:37 33.201806 -117.402830 133 1353ft 118kts
05-Nov-20 13:38 33.185969 -117.370390 81 1398ft 121kts
05-Nov-20 13:39 33.191729 -117.329352 86 1395ft 128kts
05-Nov-20 13:40 33.192934 -117.287798 85 1347ft 123kts
05-Nov-20 13:41 33.194924 -117.247770 98 1742ft 117kts
05-Nov-20 13:42 33.179347 -117.215644 138 3044ft 115kts
05-Nov-20 13:43 33.155606 -117.185363 115 3235ft 130kts
05-Nov-20 13:44 33.144872 -117.148170 125 3390ft 118kts
05-Nov-20 13:45 33.137213 -117.110921 96 3422ft 130kts
05-Nov-20 13:46 33.118454 -117.074264 118 3347ft 129kts
05-Nov-20 13:47 33.100151 -117.040339 127 3370ft 113kts
05-Nov-20 13:48 33.081219 -117.009137 126 3338ft 115kts
05-Nov-20 13:49 33.060971 -116.982486 137 2633ft 101kts
05-Nov-20 13:50 33.039369 -116.978953 250 2327ft 103kts
05-Nov-20 13:51 33.046072 -117.004691 357 2335ft 92kts
05-Nov-20 13:51 33.050759 -116.983110 33 2216ft 89kts
05-Nov-20 13:53 33.078410 -116.989739 231 2282ft 99kts
05-Nov-20 13:53 33.059117 -116.985432 138 2244ft 98kts
05-Nov-20 13:55 33.044855 -116.964816 98 2082ft 83kts
05-Nov-20 13:55 33.042814 -116.939999 98 1810ft 80kts
05-Nov-20 13:56 33.039312 -116.916195 100 1390ft 38kts
05-Nov-20 13:57 33.039620 -116.915013 6 1393ft 3kts
05-Nov-20 13:58 33.039288 -116.911319 99 1396ft 15kts
05-Nov-20 13:59 33.039384 -116.908195 2 1397ft 6kts

Navigation Log

Ident Type
Flight plan parsing failed, navigation log unavailable